Time;durP1;ratioP1;P1;durP2;ratioP2;P2;SDS_P1;SDS_P2;PMS_P1;PMS_P2;Temp;Humidity;BMP_temperature;BMP_pressure;BME280_temperature;BME280_humidity;BME280_pressure;Samples;Min_cycle;Max_cycle;Signal;HPM_P1;HPM_P2
2022/05/22 00:00:07;;;;;;;2.42;1.70;;;14.80;90.70;;;;;;5016536;28;20021;-88
2022/05/22 00:02:33;;;;;;;4.68;1.92;;;14.80;90.80;;;;;;5009006;28;20109;-89
2022/05/22 00:04:59;;;;;;;3.08;1.95;;;14.80;90.90;;;;;;5013231;28;20025;-89
2022/05/22 00:07:24;;;;;;;2.92;2.05;;;14.80;90.90;;;;;;5014463;28;20025;-90
2022/05/22 00:09:50;;;;;;;2.92;1.90;;;14.80;91.00;;;;;;5016938;28;20025;-88
2022/05/22 00:12:16;;;;;;;2.75;1.90;;;14.80;91.10;;;;;;5023411;28;20030;-89
2022/05/22 00:14:41;;;;;;;3.50;2.00;;;14.80;91.50;;;;;;5015491;28;20120;-89
2022/05/22 00:17:08;;;;;;;4.43;2.10;;;14.70;91.40;;;;;;5020068;28;20036;-89
2022/05/22 00:19:34;;;;;;;3.55;1.98;;;14.70;91.30;;;;;;5022435;28;20601;-89
2022/05/22 00:22:01;;;;;;;2.20;2.00;;;14.60;91.40;;;;;;5016144;28;20014;-87
2022/05/22 00:24:29;;;;;;;4.03;2.25;;;14.60;91.50;;;;;;5015307;28;20047;-88
2022/05/22 00:26:56;;;;;;;3.42;2.25;;;14.50;91.70;;;;;;5022989;28;20021;-89
2022/05/22 00:29:22;;;;;;;3.58;2.45;;;14.40;91.80;;;;;;5018919;28;20630;-88
2022/05/22 00:31:48;;;;;;;3.08;2.25;;;14.40;92.00;;;;;;5016559;28;20032;-89
2022/05/22 00:34:14;;;;;;;3.15;2.38;;;14.40;92.00;;;;;;5013823;28;20080;-90
2022/05/22 00:36:40;;;;;;;3.03;2.33;;;14.30;92.10;;;;;;5015941;28;20036;-89
2022/05/22 00:39:06;;;;;;;3.63;2.47;;;14.30;92.00;;;;;;5013358;28;20124;-89
2022/05/22 00:41:33;;;;;;;6.80;2.50;;;14.20;92.00;;;;;;5030568;28;20540;-88
2022/05/22 00:44:01;;;;;;;4.90;2.65;;;14.10;92.20;;;;;;5030913;28;20029;-89
2022/05/22 00:46:27;;;;;;;8.77;2.67;;;14.00;92.50;;;;;;5014593;28;20089;-90
2022/05/22 00:49:05;;;;;;;6.20;2.40;;;14.00;92.80;;;;;;5013607;28;20167;-89
2022/05/22 00:51:42;;;;;;;2.40;2.20;;;14.00;93.10;;;;;;5011048;28;20025;-88
2022/05/22 00:54:13;;;;;;;3.05;2.10;;;14.00;93.20;;;;;;5006497;28;20022;-89
2022/05/22 00:56:52;;;;;;;4.60;2.85;;;14.00;93.20;;;;;;5012624;28;20029;-89
2022/05/22 00:59:27;;;;;;;2.55;2.35;;;14.00;93.30;;;;;;5012630;28;20033;-88
2022/05/22 01:01:55;;;;;;;3.03;2.70;;;14.00;93.40;;;;;;5012641;28;20025;-89
2022/05/22 01:04:23;;;;;;;3.90;2.85;;;14.00;93.50;;;;;;5011834;28;20150;-89
2022/05/22 01:06:51;;;;;;;4.88;2.67;;;14.00;93.60;;;;;;5018776;28;20656;-89
2022/05/22 01:09:17;;;;;;;4.03;2.95;;;14.00;93.60;;;;;;5005148;28;20497;-89
2022/05/22 01:11:44;;;;;;;3.25;2.72;;;14.00;93.60;;;;;;5022346;28;20018;-89
2022/05/22 01:14:21;;;;;;;4.63;2.80;;;13.90;93.60;;;;;;5012802;28;20621;-90
2022/05/22 01:16:47;;;;;;;3.60;2.53;;;13.90;93.80;;;;;;5023733;28;20033;-90
2022/05/22 01:19:16;;;;;;;3.75;2.17;;;13.80;93.80;;;;;;5014832;28;20060;-89
2022/05/22 01:21:57;;;;;;;5.93;2.20;;;13.80;93.90;;;;;;5012885;28;20028;-90
2022/05/22 01:24:23;;;;;;;2.97;2.67;;;13.80;94.20;;;;;;5015988;28;20741;-89
2022/05/22 01:26:51;;;;;;;3.30;2.47;;;13.80;94.30;;;;;;5013652;28;20545;-89
2022/05/22 01:29:17;;;;;;;5.38;2.50;;;13.80;94.30;;;;;;5018954;28;20060;-89
2022/05/22 01:31:43;;;;;;;3.08;2.40;;;13.80;94.30;;;;;;5015568;28;20029;-89
2022/05/22 01:34:08;;;;;;;2.47;1.98;;;13.70;94.30;;;;;;5016702;28;20033;-89
2022/05/22 01:36:34;;;;;;;4.93;2.47;;;13.70;94.40;;;;;;5019654;28;20060;-87
2022/05/22 01:39:00;;;;;;;4.43;2.22;;;13.60;94.50;;;;;;5011994;28;20128;-90
2022/05/22 01:41:25;;;;;;;2.80;2.53;;;13.60;94.60;;;;;;5014136;28;20080;-89
2022/05/22 01:43:51;;;;;;;2.33;2.10;;;13.60;94.80;;;;;;5032841;28;20354;-90
2022/05/22 01:46:17;;;;;;;4.60;2.65;;;13.50;94.80;;;;;;5020152;28;20061;-89
2022/05/22 01:48:42;;;;;;;2.42;2.13;;;13.40;94.80;;;;;;5029615;28;20049;-88
2022/05/22 01:51:10;;;;;;;2.50;2.30;;;13.40;94.80;;;;;;5011220;28;20041;-89
2022/05/22 01:53:36;;;;;;;2.30;2.10;;;13.40;95.20;;;;;;5022493;28;20048;-89
2022/05/22 01:56:01;;;;;;;3.45;2.28;;;13.30;95.00;;;;;;5019315;28;20560;-90
2022/05/22 01:58:27;;;;;;;2.53;2.25;;;13.30;95.20;;;;;;5005752;28;20038;-89
2022/05/22 02:00:53;;;;;;;2.85;2.25;;;13.20;95.20;;;;;;5016779;28;20393;-88
2022/05/22 02:03:18;;;;;;;4.38;2.47;;;13.20;95.40;;;;;;5009217;28;20029;-89
2022/05/22 02:05:44;;;;;;;2.38;2.13;;;13.20;95.50;;;;;;5024475;28;20033;-89
2022/05/22 02:08:21;;;;;;;3.58;2.25;;;13.20;95.70;;;;;;5025081;28;20037;-90
2022/05/22 02:10:50;;;;;;;2.78;2.30;;;13.20;95.90;;;;;;5034300;28;20030;-88
2022/05/22 02:13:20;;;;;;;4.55;2.28;;;13.10;95.70;;;;;;5016503;28;20057;-90
2022/05/22 02:15:46;;;;;;;3.40;2.35;;;13.10;95.80;;;;;;5013787;28;20026;-90
2022/05/22 02:18:13;;;;;;;2.58;2.15;;;13.00;95.80;;;;;;5015548;28;20033;-89
2022/05/22 02:20:39;;;;;;;3.58;2.40;;;13.00;96.10;;;;;;5029274;28;20112;-90
2022/05/22 02:23:04;;;;;;;2.65;2.17;;;13.00;96.20;;;;;;5015627;28;20025;-90
2022/05/22 02:25:33;;;;;;;2.80;2.22;;;13.00;96.10;;;;;;5014378;28;20035;-89
2022/05/22 02:28:00;;;;;;;8.80;2.45;;;13.00;96.10;;;;;;5006542;28;20524;-88
2022/05/22 02:30:30;;;;;;;3.05;2.28;;;12.90;96.00;;;;;;5036221;28;20502;-89
2022/05/22 02:32:56;;;;;;;2.38;2.08;;;12.90;96.10;;;;;;5035307;28;20572;-89
2022/05/22 02:35:22;;;;;;;5.43;2.53;;;12.80;96.10;;;;;;5019239;28;20140;-89
2022/05/22 02:37:50;;;;;;;4.43;2.10;;;12.80;96.20;;;;;;5024595;28;20022;-89
2022/05/22 02:40:19;;;;;;;3.20;2.30;;;12.70;96.20;;;;;;5029510;28;20463;-88
2022/05/22 02:42:47;;;;;;;2.53;2.30;;;12.70;96.30;;;;;;5031087;28;20026;-89
2022/05/22 02:45:16;;;;;;;3.88;2.47;;;12.70;96.30;;;;;;5014576;28;20394;-89
2022/05/22 02:47:42;;;;;;;2.78;2.53;;;12.60;96.50;;;;;;5007040;28;20021;-88
2022/05/22 02:50:09;;;;;;;3.75;2.38;;;12.60;96.50;;;;;;5030356;28;20041;-88
2022/05/22 02:52:35;;;;;;;2.97;2.42;;;12.60;96.60;;;;;;5008212;28;20493;-89
2022/05/22 02:55:00;;;;;;;3.50;2.55;;;12.60;96.70;;;;;;5021685;28;20089;-89
2022/05/22 02:57:26;;;;;;;2.55;2.35;;;12.60;96.80;;;;;;5030914;28;20108;-89
2022/05/22 02:59:53;;;;;;;6.80;2.53;;;12.60;96.80;;;;;;5023540;28;20661;-89
2022/05/22 03:02:19;;;;;;;6.15;2.75;;;12.60;96.90;;;;;;5013001;28;20478;-88
2022/05/22 03:04:45;;;;;;;5.78;2.58;;;12.60;97.00;;;;;;5013502;28;20032;-89
2022/05/22 03:07:12;;;;;;;7.00;2.80;;;12.50;97.10;;;;;;5022411;28;20025;-89
2022/05/22 03:09:40;;;;;;;2.90;2.30;;;12.50;97.10;;;;;;5016344;28;20056;-89
2022/05/22 03:12:22;;;;;;;2.45;2.25;;;12.50;97.00;;;;;;5006370;28;20032;-90
2022/05/22 03:14:54;;;;;;;2.35;2.15;;;12.50;97.10;;;;;;5009302;28;20024;-89
2022/05/22 03:17:20;;;;;;;;;;;12.40;97.10;;;;;;5016098;28;20037;-88
2022/05/22 03:19:45;;;;;;;4.28;2.53;;;12.40;96.80;;;;;;5031319;28;19909;-89
2022/05/22 03:22:11;;;;;;;2.63;2.38;;;12.40;96.90;;;;;;5016858;28;20082;-88
2022/05/22 03:24:38;;;;;;;3.75;2.42;;;12.40;97.00;;;;;;5010203;28;20026;-89
2022/05/22 03:27:06;;;;;;;2.60;2.33;;;12.30;97.10;;;;;;5020869;28;20478;-89
2022/05/22 03:29:32;;;;;;;3.97;2.65;;;12.30;97.10;;;;;;5015738;28;20021;-89
2022/05/22 03:31:58;;;;;;;5.13;2.60;;;12.20;97.10;;;;;;5010609;28;20371;-89
2022/05/22 03:34:24;;;;;;;3.25;2.42;;;12.10;97.30;;;;;;5032686;28;20048;-89
2022/05/22 03:36:50;;;;;;;4.80;2.47;;;12.00;97.50;;;;;;5005741;28;20531;-88
2022/05/22 03:39:16;;;;;;;2.60;2.40;;;12.00;97.70;;;;;;5024252;28;20029;-89
2022/05/22 03:41:41;;;;;;;2.83;2.28;;;12.00;97.90;;;;;;5011709;28;20116;-89
2022/05/22 03:44:07;;;;;;;3.17;2.50;;;11.90;98.00;;;;;;5009957;28;20029;-89
2022/05/22 03:46:33;;;;;;;3.08;2.50;;;11.90;98.20;;;;;;5022374;28;20028;-89
2022/05/22 03:48:59;;;;;;;3.63;2.55;;;11.90;98.30;;;;;;5023005;28;20457;-89
2022/05/22 03:51:25;;;;;;;2.70;2.50;;;11.90;98.40;;;;;;5008629;28;20543;-90
2022/05/22 03:53:51;;;;;;;2.63;2.42;;;11.90;98.50;;;;;;5009892;28;20033;-89
2022/05/22 03:56:21;;;;;;;5.75;2.70;;;11.90;98.60;;;;;;5027949;28;20079;-88
2022/05/22 03:58:47;;;;;;;4.57;2.58;;;11.90;98.50;;;;;;5013314;28;20116;-88
2022/05/22 04:01:13;;;;;;;3.45;2.60;;;11.90;98.50;;;;;;5005333;28;20034;-87
2022/05/22 04:03:39;;;;;;;4.15;2.65;;;11.80;98.60;;;;;;5011194;28;20102;-89
2022/05/22 04:06:07;;;;;;;5.35;2.65;;;11.90;98.70;;;;;;5031031;28;20481;-89
2022/05/22 04:08:34;;;;;;;2.78;2.40;;;11.90;98.90;;;;;;5013177;28;20032;-89
2022/05/22 04:11:13;;;;;;;2.63;2.42;;;11.90;98.90;;;;;;5006790;28;20025;-88
2022/05/22 04:13:39;;;;;;;6.15;2.83;;;12.00;99.10;;;;;;5016410;28;20030;-88
2022/05/22 04:16:06;;;;;;;3.35;3.05;;;11.90;98.90;;;;;;5010633;28;20022;-89
2022/05/22 04:18:32;;;;;;;3.75;2.45;;;12.00;98.90;;;;;;5024585;28;20037;-89
2022/05/22 04:20:58;;;;;;;2.40;2.20;;;11.90;98.80;;;;;;5034592;28;20025;-89
2022/05/22 04:26:09;;;;;;;3.47;2.40;;;11.80;98.80;;;;;;5019126;28;20072;-86
2022/05/22 04:28:35;;;;;;;3.47;2.67;;;11.80;99.00;;;;;;5015517;28;20026;-88
2022/05/22 04:31:03;;;;;;;4.07;2.60;;;11.80;99.20;;;;;;5021296;28;20079;-89
2022/05/22 04:33:29;;;;;;;4.38;2.40;;;11.80;99.30;;;;;;5006897;28;20080;-87
2022/05/22 07:45:59;;;;;;;4.28;1.25;;;20.50;93.20;;;;;;5081677;23;20055;-90
2022/05/22 07:48:24;;;;;;;3.45;1.17;;;20.90;92.30;;;;;;5053673;28;20024;-89
2022/05/22 07:50:55;;;;;;;3.80;1.20;;;21.10;91.90;;;;;;5053829;28;20020;-90
2022/05/22 07:53:21;;;;;;;2.70;1.17;;;21.50;91.40;;;;;;5053198;28;20042;-89
2022/05/22 07:55:46;;;;;;;2.00;1.17;;;21.90;90.90;;;;;;5053103;28;20031;-89
2022/05/22 07:58:12;;;;;;;3.30;1.20;;;22.30;90.40;;;;;;5051659;28;20028;-90
2022/05/22 08:00:38;;;;;;;1.88;1.00;;;22.50;87.40;;;;;;5051084;28;20029;-89
2022/05/22 08:03:12;;;;;;;3.20;1.13;;;22.60;86.80;;;;;;5052043;28;20125;-91
2022/05/22 08:05:38;;;;;;;2.40;1.00;;;22.80;84.40;;;;;;5046344;28;20673;-91
2022/05/22 08:08:04;;;;;;;2.50;0.90;;;23.10;83.80;;;;;;5054639;28;20024;-90
2022/05/22 08:10:30;;;;;;;1.90;0.80;;;23.40;82.50;;;;;;5051278;28;20370;-89
2022/05/22 08:12:56;;;;;;;2.15;0.63;;;23.70;80.90;;;;;;5050105;28;20032;-90
2022/05/22 08:15:24;;;;;;;1.55;0.82;;;23.90;78.60;;;;;;5052050;28;20028;-89
2022/05/22 08:17:49;;;;;;;2.80;1.42;;;24.10;77.10;;;;;;5057005;28;20029;-89
2022/05/22 08:20:20;;;;;;;3.22;0.77;;;24.40;75.70;;;;;;5051347;28;20055;-89
2022/05/22 08:22:46;;;;;;;2.47;0.70;;;24.30;72.60;;;;;;5045460;28;20060;-90
2022/05/22 08:25:16;;;;;;;2.67;0.90;;;24.40;72.80;;;;;;5051832;28;20443;-90
2022/05/22 08:27:42;;;;;;;2.67;1.02;;;24.50;71.00;;;;;;5050301;28;20173;-88
2022/05/22 08:30:09;;;;;;;3.33;1.00;;;24.30;69.80;;;;;;5072163;28;20518;-87
2022/05/22 08:32:44;;;;;;;1.00;0.60;;;24.30;71.20;;;;;;5047704;28;20020;-87
2022/05/22 08:35:11;;;;;;;1.90;0.90;;;24.40;70.90;;;;;;5070821;28;20060;-87
2022/05/22 08:37:37;;;;;;;2.35;0.82;;;24.80;70.60;;;;;;5051434;28;20396;-88
2022/05/22 08:40:04;;;;;;;3.38;0.98;;;25.20;69.80;;;;;;5054488;28;20028;-88
2022/05/22 08:42:36;;;;;;;1.23;0.65;;;25.50;68.70;;;;;;5053500;28;20039;-88
2022/05/22 08:45:04;;;;;;;1.60;0.65;;;25.80;67.20;;;;;;5048903;28;20020;-88
2022/05/22 08:48:03;;;;;;;1.92;0.88;;;26.00;66.80;;;;;;5057788;28;20056;-89
2022/05/22 08:50:30;;;;;;;2.58;0.70;;;26.20;65.90;;;;;;5050024;28;20102;-88
2022/05/22 08:53:18;;;;;;;0.80;0.80;;;26.40;67.90;;;;;;5049520;28;20024;-87
2022/05/22 08:58:57;;;;;;;2.05;0.70;;;26.50;65.10;;;;;;5067342;28;20184;-89
2022/05/22 09:01:45;;;;;;;2.70;0.65;;;26.70;64.10;;;;;;5073967;28;20028;-88
2022/05/22 09:04:26;;;;;;;1.73;0.70;;;27.00;63.70;;;;;;5049713;28;20032;-88
2022/05/22 09:07:21;;;;;;;1.27;0.90;;;27.20;62.90;;;;;;5054627;28;20020;-84
2022/05/22 09:10:00;;;;;;;1.05;0.60;;;27.60;63.00;;;;;;5072161;28;20028;-87
2022/05/22 09:12:47;;;;;;;2.38;1.58;;;28.00;61.20;;;;;;5046965;28;20021;-86
2022/05/22 09:15:39;;;;;;;4.53;1.20;;;28.50;60.00;;;;;;5050630;28;20070;-86
2022/05/22 09:18:32;;;;;;;2.80;0.90;;;28.50;60.10;;;;;;5050536;28;20056;-87
2022/05/22 09:21:19;;;;;;;2.10;0.88;;;28.90;59.80;;;;;;5051507;28;20029;-87
2022/05/22 09:24:00;;;;;;;1.98;0.90;;;29.50;58.20;;;;;;5071411;28;20040;-84
2022/05/22 09:26:43;;;;;;;2.30;0.73;;;30.10;56.40;;;;;;5086732;28;20021;-86
2022/05/22 09:29:20;;;;;;;2.45;0.88;;;30.60;54.70;;;;;;5072132;28;20453;-86
2022/05/22 09:32:17;;;;;;;2.10;1.00;;;31.50;54.10;;;;;;5044264;28;20054;-87
2022/05/22 09:35:01;;;;;;;1.15;0.80;;;32.50;52.80;;;;;;5070603;28;20467;-89
2022/05/22 09:38:01;;;;;;;2.55;1.17;;;33.40;51.90;;;;;;5070960;28;20120;-87
2022/05/22 09:40:50;;;;;;;2.35;0.77;;;34.40;50.00;;;;;;5031971;28;20082;-87
2022/05/22 09:43:39;;;;;;;1.98;1.30;;;35.20;47.60;;;;;;5048896;28;20685;-87
2022/05/22 09:46:35;;;;;;;0.95;0.60;;;35.90;47.10;;;;;;5047209;28;20159;-88
2022/05/22 09:49:38;;;;;;;3.25;0.80;;;36.50;46.10;;;;;;5050296;28;20017;-89
2022/05/22 09:52:21;;;;;;;2.08;0.90;;;36.20;44.90;;;;;;5066440;28;20329;-87
2022/05/22 09:55:21;;;;;;;3.65;0.80;;;36.50;44.40;;;;;;5066020;28;20079;-87
2022/05/22 09:58:09;;;;;;;1.75;0.80;;;37.00;43.40;;;;;;5044067;28;20027;-87
2022/05/22 10:00:55;;;;;;;1.20;0.68;;;37.70;43.10;;;;;;5056445;28;20101;-87
2022/05/22 10:03:58;;;;;;;1.67;0.60;;;38.30;41.50;;;;;;5057442;28;20096;-87
2022/05/22 10:06:40;;;;;;;1.52;0.60;;;39.00;41.60;;;;;;5050102;28;20033;-87
2022/05/22 10:09:15;;;;;;;2.00;0.73;;;39.60;40.20;;;;;;5050682;28;20024;-87
2022/05/22 10:12:03;;;;;;;1.88;0.60;;;39.90;39.30;;;;;;5051560;28;20028;-88
2022/05/22 10:15:03;;;;;;;1.80;0.80;;;40.30;39.30;;;;;;5067163;28;20028;-87
2022/05/22 10:17:37;;;;;;;1.65;0.90;;;40.50;38.50;;;;;;5050261;28;20120;-86
2022/05/22 10:20:18;;;;;;;2.28;0.70;;;40.60;37.80;;;;;;5050683;28;20024;-87
2022/05/22 10:23:06;;;;;;;2.05;0.70;;;40.30;38.00;;;;;;5064042;28;20028;-87
2022/05/22 10:26:09;;;;;;;1.73;0.80;;;40.40;37.70;;;;;;5054203;28;20024;-87
2022/05/22 10:28:44;;;;;;;0.70;0.70;;;40.40;37.10;;;;;;5052702;28;20044;-86
2022/05/22 10:31:23;;;;;;;1.38;0.65;;;40.10;37.10;;;;;;5062120;28;20025;-89
2022/05/22 10:36:57;;;;;;;1.13;0.60;;;39.70;38.20;;;;;;5047792;28;20121;-87
2022/05/22 10:39:22;;;;;;;1.50;0.70;;;39.20;38.80;;;;;;5036194;28;20025;-87
2022/05/22 10:44:40;;;;;;;1.80;0.60;;;38.40;39.40;;;;;;5053103;28;20087;-87
2022/05/22 10:47:07;;;;;;;1.13;0.70;;;37.90;39.70;;;;;;5036318;28;20025;-88
2022/05/22 10:49:43;;;;;;;2.75;0.77;;;37.20;40.00;;;;;;5036283;28;20021;-87
2022/05/22 10:52:11;;;;;;;4.60;1.13;;;36.50;41.00;;;;;;5033504;28;20025;-87
2022/05/22 10:54:52;;;;;;;0.73;0.50;;;36.00;41.20;;;;;;5016740;28;20056;-87
2022/05/22 10:57:27;;;;;;;3.10;0.70;;;35.40;40.70;;;;;;5034957;28;20175;-87
2022/05/22 10:59:53;;;;;;;1.33;0.70;;;34.40;41.60;;;;;;5016733;28;20546;-87
2022/05/22 11:02:31;;;;;;;3.03;0.57;;;33.70;42.50;;;;;;5016337;28;20466;-87
2022/05/22 11:04:58;;;;;;;2.70;0.95;;;33.30;42.80;;;;;;5040007;28;20083;-87
2022/05/22 11:07:33;;;;;;;1.90;0.70;;;32.80;43.00;;;;;;5025240;28;20104;-88
2022/05/22 11:10:20;;;;;;;4.40;1.05;;;32.50;43.10;;;;;;5036247;28;20021;-87
2022/05/22 11:12:45;;;;;;;1.77;0.70;;;32.20;43.30;;;;;;5036008;28;20124;-87
2022/05/22 11:15:29;;;;;;;1.08;0.68;;;32.00;43.80;;;;;;5053592;28;20068;-87
2022/05/22 11:18:10;;;;;;;3.50;0.60;;;31.70;44.00;;;;;;5035840;28;20184;-88
2022/05/22 11:21:00;;;;;;;2.75;0.70;;;31.50;44.10;;;;;;5042901;28;20025;-87
2022/05/22 11:23:54;;;;;;;1.13;0.80;;;31.40;44.70;;;;;;5032800;28;20030;-87
2022/05/22 11:26:44;;;;;;;2.15;0.80;;;31.20;44.90;;;;;;5016014;28;20481;-87
2022/05/22 11:29:49;;;;;;;1.63;0.73;;;31.00;45.20;;;;;;5041773;28;20389;-88
2022/05/22 11:32:41;;;;;;;2.25;0.80;;;30.80;45.70;;;;;;5023581;28;20322;-88
2022/05/22 11:35:21;;;;;;;1.40;0.70;;;30.60;45.70;;;;;;5032119;28;20044;-88
2022/05/22 11:38:12;;;;;;;2.67;1.15;;;30.30;45.70;;;;;;5029693;28;20039;-88
2022/05/22 11:40:40;;;;;;;0.85;0.77;;;30.20;45.70;;;;;;5035044;28;20056;-87
2022/05/22 11:43:09;;;;;;;1.75;0.73;;;30.10;46.20;;;;;;5019063;28;20057;-88
2022/05/22 11:45:55;;;;;;;1.55;0.63;;;30.00;47.00;;;;;;5035981;28;20100;-88
2022/05/22 11:48:51;;;;;;;2.92;0.80;;;30.00;46.80;;;;;;5031825;28;20028;-87
2022/05/22 11:51:56;;;;;;;1.95;0.65;;;29.90;46.80;;;;;;5031482;28;20069;-87
2022/05/22 11:54:47;;;;;;;2.30;0.80;;;29.70;46.60;;;;;;5025111;28;20536;-87
2022/05/22 11:57:31;;;;;;;2.00;0.70;;;29.50;46.70;;;;;;5015353;28;20029;-87
2022/05/22 12:00:14;;;;;;;1.85;0.70;;;29.40;47.10;;;;;;5031790;28;20035;-87
2022/05/22 12:02:59;;;;;;;1.50;0.85;;;29.30;47.20;;;;;;5022306;28;20025;-87
2022/05/22 12:05:31;;;;;;;2.47;0.65;;;29.20;47.40;;;;;;5025507;28;20025;-87
2022/05/22 12:08:08;;;;;;;3.25;0.80;;;29.20;47.70;;;;;;5057120;28;20055;-87
2022/05/22 12:10:45;;;;;;;1.00;0.73;;;29.10;47.90;;;;;;5020463;28;20033;-87
2022/05/22 12:13:27;;;;;;;1.65;0.65;;;29.00;48.20;;;;;;5050083;28;20021;-86
2022/05/22 12:16:05;;;;;;;2.72;0.70;;;29.10;47.80;;;;;;5044403;28;20021;-87
2022/05/22 12:18:52;;;;;;;1.02;0.77;;;29.10;48.30;;;;;;5030834;28;20370;-87
2022/05/22 12:21:43;;;;;;;3.80;1.00;;;29.10;48.10;;;;;;5020300;28;20030;-87
2022/05/22 12:24:09;;;;;;;2.17;0.93;;;29.10;47.70;;;;;;5019471;28;20025;-87
2022/05/22 12:26:35;;;;;;;2.53;0.75;;;29.10;48.40;;;;;;5027263;28;20115;-88
2022/05/22 12:29:07;;;;;;;2.30;0.68;;;29.00;48.10;;;;;;5031622;28;20493;-88
2022/05/22 12:31:54;;;;;;;1.40;0.80;;;29.10;48.10;;;;;;5027824;28;20167;-87
2022/05/22 12:34:34;;;;;;;1.08;0.60;;;28.90;47.70;;;;;;5043758;28;20345;-87
2022/05/22 12:37:02;;;;;;;0.52;0.52;;;28.80;47.80;;;;;;5048380;28;20484;-87
2022/05/22 12:39:33;;;;;;;1.58;0.60;;;28.80;48.70;;;;;;5025848;28;20545;-87
2022/05/22 12:42:10;;;;;;;2.05;0.90;;;28.70;48.30;;;;;;5038516;28;20028;-88
2022/05/22 12:44:36;;;;;;;1.75;0.70;;;28.70;48.20;;;;;;5039037;28;20021;-87
2022/05/22 12:47:14;;;;;;;1.63;0.70;;;28.60;49.40;;;;;;5029775;28;20026;-87
2022/05/22 12:49:41;;;;;;;1.13;0.60;;;28.60;48.70;;;;;;5032746;28;20018;-87
2022/05/22 12:52:27;;;;;;;0.98;0.70;;;28.50;48.40;;;;;;5028152;28;20139;-88
2022/05/22 12:54:58;;;;;;;3.15;0.80;;;28.40;48.60;;;;;;5021696;28;20402;-87
2022/05/22 12:57:25;;;;;;;1.02;0.68;;;28.30;48.90;;;;;;5041276;28;20032;-87
2022/05/22 13:00:12;;;;;;;1.63;0.70;;;28.20;48.60;;;;;;5034030;28;20025;-87
2022/05/22 13:02:41;;;;;;;1.25;0.80;;;28.00;48.70;;;;;;5018247;28;20449;-88
2022/05/22 13:05:24;;;;;;;2.75;1.15;;;27.80;48.80;;;;;;5019660;28;20106;-87
2022/05/22 13:07:50;;;;;;;1.60;0.98;;;27.50;48.90;;;;;;5026279;28;20115;-87
2022/05/22 13:10:33;;;;;;;1.08;0.73;;;27.40;49.10;;;;;;5040477;28;20029;-88
2022/05/22 13:13:03;;;;;;;3.00;0.70;;;27.30;49.00;;;;;;5020349;28;20051;-87
2022/05/22 13:15:31;;;;;;;1.38;0.60;;;27.20;49.90;;;;;;5032335;28;20084;-87
2022/05/22 13:18:12;;;;;;;3.33;1.00;;;27.10;49.20;;;;;;5023388;28;20029;-87
2022/05/22 13:20:37;;;;;;;1.02;0.60;;;27.10;49.00;;;;;;5010908;28;20445;-86
2022/05/22 13:23:08;;;;;;;2.70;0.70;;;27.00;49.20;;;;;;5032616;28;20032;-85
2022/05/22 13:25:43;;;;;;;1.48;0.60;;;27.00;49.00;;;;;;5022481;28;20035;-86
2022/05/22 13:28:29;;;;;;;2.13;0.70;;;26.90;48.90;;;;;;5026112;28;20022;-85
2022/05/22 13:31:16;;;;;;;1.65;0.68;;;26.80;49.00;;;;;;5017714;28;20021;-85
2022/05/22 13:33:50;;;;;;;2.45;0.60;;;26.70;49.70;;;;;;5012040;28;20129;-83
2022/05/22 13:36:31;;;;;;;1.77;0.68;;;26.60;48.90;;;;;;5029319;28;20030;-84
2022/05/22 13:39:01;;;;;;;1.25;0.70;;;26.50;49.50;;;;;;5006824;28;20550;-84
2022/05/22 13:42:03;;;;;;;1.77;0.80;;;26.50;49.00;;;;;;5011654;28;20378;-85
2022/05/22 13:44:47;;;;;;;;;;;26.40;49.10;;;;;;5015145;28;20127;-83
2022/05/22 13:47:40;;;;;;;5.18;1.00;;;26.40;49.90;;;;;;5009291;28;19944;-82
2022/05/22 13:53:22;;;;;;;3.08;1.00;;;26.40;49.90;;;;;;5043062;28;20056;-85
2022/05/22 13:55:50;;;;;;;2.30;0.75;;;26.40;50.00;;;;;;5036284;28;20026;-84
2022/05/22 13:58:40;;;;;;;1.98;0.50;;;26.30;50.10;;;;;;5023844;28;20413;-84
2022/05/22 14:01:13;;;;;;;1.08;0.85;;;26.30;49.90;;;;;;5030220;28;20158;-86
2022/05/22 14:03:56;;;;;;;1.73;0.60;;;26.30;49.70;;;;;;5036148;28;20033;-83
2022/05/22 14:06:30;;;;;;;1.98;0.90;;;26.20;49.70;;;;;;5017180;28;20417;-86
2022/05/22 14:08:58;;;;;;;1.27;0.90;;;26.00;49.20;;;;;;5022268;28;20099;-85
2022/05/22 14:11:25;;;;;;;1.27;0.85;;;25.90;49.00;;;;;;5018195;28;20025;-85
2022/05/22 14:13:54;;;;;;;1.70;0.82;;;25.70;49.20;;;;;;5017049;28;20932;-86
2022/05/22 14:16:24;;;;;;;1.20;0.70;;;25.60;49.80;;;;;;5025952;28;20111;-84
2022/05/22 14:19:02;;;;;;;0.40;0.40;;;25.60;49.60;;;;;;5030881;28;20032;-86
2022/05/22 14:21:30;;;;;;;0.90;0.60;;;25.60;49.90;;;;;;5042754;28;20116;-83
2022/05/22 14:26:48;;;;;;;1.40;0.55;;;25.70;50.10;;;;;;5044545;28;20039;-85
2022/05/22 14:29:14;;;;;;;1.25;0.60;;;25.70;50.50;;;;;;5024642;28;20044;-85
2022/05/22 14:31:51;;;;;;;0.68;0.50;;;25.70;50.20;;;;;;5050995;28;20017;-87
2022/05/22 14:34:26;;;;;;;1.45;0.57;;;25.70;49.60;;;;;;5023590;28;20832;-85
2022/05/22 14:36:55;;;;;;;1.55;0.80;;;25.70;49.40;;;;;;5031197;28;20115;-86
2022/05/22 14:39:23;;;;;;;1.38;0.70;;;25.60;49.50;;;;;;5045453;28;20113;-85
2022/05/22 14:41:50;;;;;;;2.53;0.60;;;25.60;49.60;;;;;;5037771;28;20033;-84
2022/05/22 14:44:24;;;;;;;1.33;0.60;;;25.60;49.90;;;;;;5050927;28;20053;-86
2022/05/22 14:46:54;;;;;;;2.03;0.70;;;25.60;50.00;;;;;;5044803;28;20045;-85
2022/05/22 14:49:32;;;;;;;1.50;0.57;;;25.60;49.80;;;;;;5036660;28;20063;-86
2022/05/22 14:52:05;;;;;;;2.60;0.63;;;25.50;49.80;;;;;;5023056;28;20037;-87
2022/05/22 14:55:03;;;;;;;0.88;0.40;;;25.60;49.70;;;;;;5042497;28;20096;-86
2022/05/22 14:57:37;;;;;;;1.10;0.70;;;25.60;49.60;;;;;;5019426;28;20035;-86
2022/05/22 15:00:09;;;;;;;1.35;0.70;;;25.60;49.60;;;;;;5037859;28;20075;-84
2022/05/22 15:03:01;;;;;;;2.13;0.60;;;25.60;49.90;;;;;;5039312;28;20337;-86
2022/05/22 15:05:39;;;;;;;40.78;25.35;;;25.50;49.70;;;;;;5063913;28;20043;-86
2022/05/22 15:08:08;;;;;;;2.97;1.25;;;25.50;50.00;;;;;;5032146;28;20026;-86
2022/05/22 15:10:37;;;;;;;2.38;1.02;;;25.50;49.70;;;;;;5028458;28;20021;-86
2022/05/22 15:13:19;;;;;;;3.08;1.00;;;25.50;50.00;;;;;;5024433;28;20063;-88
2022/05/22 15:15:45;;;;;;;1.95;0.60;;;25.50;49.80;;;;;;5030799;28;20480;-89
2022/05/22 15:21:25;;;;;;;0.65;0.60;;;25.60;49.90;;;;;;5034661;28;20043;-85
2022/05/22 15:26:52;;;;;;;2.15;0.70;;;25.60;49.60;;;;;;5048326;28;20074;-84
2022/05/22 15:29:27;;;;;;;0.65;0.65;;;25.50;49.50;;;;;;5047639;28;20059;-82
2022/05/22 15:31:52;;;;;;;3.60;0.60;;;25.50;49.70;;;;;;5024139;28;20028;-85
2022/05/22 15:34:24;;;;;;;1.58;0.45;;;25.40;49.80;;;;;;5028996;28;20059;-84
2022/05/22 15:36:51;;;;;;;0.63;0.47;;;25.40;49.80;;;;;;5040874;28;20040;-87
2022/05/22 15:39:28;;;;;;;2.05;0.80;;;25.40;49.60;;;;;;5038355;28;20135;-85
2022/05/22 15:42:14;;;;;;;1.13;0.73;;;25.50;49.40;;;;;;5049847;28;20028;-86
2022/05/22 15:44:54;;;;;;;2.72;0.70;;;25.40;50.10;;;;;;5031534;28;20112;-86
2022/05/22 15:47:23;;;;;;;3.42;0.70;;;25.40;50.10;;;;;;5040288;28;20021;-86
2022/05/22 15:52:42;;;;;;;3.70;0.70;;;25.40;49.40;;;;;;5049324;28;20087;-86
2022/05/22 15:55:11;;;;;;;1.20;0.50;;;25.40;49.40;;;;;;5026813;28;20025;-86
2022/05/22 15:57:37;;;;;;;1.88;0.57;;;25.30;49.20;;;;;;5026319;28;20068;-86
2022/05/22 16:00:04;;;;;;;0.57;0.50;;;25.20;49.10;;;;;;5047828;28;20049;-85
2022/05/22 16:02:34;;;;;;;1.17;0.40;;;25.30;49.20;;;;;;5034690;28;20057;-83
2022/05/22 16:05:00;;;;;;;0.82;0.40;;;25.20;49.20;;;;;;5036804;28;20022;-84
2022/05/22 16:07:28;;;;;;;0.82;0.45;;;25.20;48.90;;;;;;5024516;28;20021;-84
2022/05/22 16:09:54;;;;;;;0.90;0.50;;;25.20;49.10;;;;;;5015819;28;20393;-82
2022/05/22 16:12:20;;;;;;;2.05;0.80;;;25.20;49.10;;;;;;5038647;28;20025;-84
2022/05/22 16:14:46;;;;;;;2.92;0.50;;;25.20;49.40;;;;;;5022034;28;20190;-84
2022/05/22 16:17:16;;;;;;;3.67;0.60;;;25.10;49.10;;;;;;5027924;28;20112;-85
2022/05/22 16:19:49;;;;;;;0.82;0.60;;;25.10;48.70;;;;;;5022568;28;20025;-83
2022/05/22 16:22:15;;;;;;;2.17;0.60;;;25.00;48.80;;;;;;5028612;28;20030;-85
2022/05/22 16:24:41;;;;;;;1.10;0.70;;;25.00;49.10;;;;;;5023928;28;20025;-83
2022/05/22 16:27:06;;;;;;;0.60;0.60;;;25.00;49.20;;;;;;5055150;28;20098;-86
2022/05/22 16:29:32;;;;;;;1.50;0.60;;;25.00;48.90;;;;;;5025300;28;20059;-82
2022/05/22 16:32:00;;;;;;;0.88;0.70;;;24.90;48.80;;;;;;5041565;28;20028;-86
2022/05/22 16:34:26;;;;;;;1.67;0.80;;;24.90;48.80;;;;;;5041919;28;20100;-84
2022/05/22 16:36:52;;;;;;;2.55;0.80;;;24.80;48.60;;;;;;5025591;23;20516;-90
2022/05/22 16:39:18;;;;;;;1.25;0.60;;;24.80;48.30;;;;;;5023502;28;20025;-89
2022/05/22 16:41:45;;;;;;;8.40;5.35;;;24.80;48.40;;;;;;5029358;28;20048;-88
2022/05/22 16:44:11;;;;;;;2.08;1.00;;;24.80;48.50;;;;;;5041801;28;20045;-88
2022/05/22 16:46:44;;;;;;;1.30;0.68;;;24.80;48.20;;;;;;5038375;28;20025;-89
2022/05/22 16:54:49;;;;;;;1.17;0.70;;;24.60;48.00;;;;;;4981069;28;20490;-87
2022/05/22 16:57:16;;;;;;;0.85;0.50;;;24.60;48.20;;;;;;5027308;28;20021;-86
2022/05/22 16:59:41;;;;;;;1.15;0.60;;;24.60;48.20;;;;;;5030420;28;20034;-88